createdAt,value
2022-10-15T00:01:53.854Z,99902.03
2022-10-15T00:04:22.480Z,99892.91
2022-10-15T00:06:50.864Z,99893.91
2022-10-15T00:09:19.423Z,99880.50
2022-10-15T00:11:47.844Z,99876.53
2022-10-15T00:14:16.472Z,99883.69
2022-10-15T00:16:46.806Z,99883.69
2022-10-15T00:19:15.408Z,99876.72
2022-10-15T00:21:43.909Z,99873.06
2022-10-15T00:24:12.417Z,99877.03
2022-10-15T00:26:40.850Z,99882.81
2022-10-15T00:29:09.583Z,99871.22
2022-10-15T00:31:38.127Z,99866.75
2022-10-15T00:34:08.610Z,99861.44
2022-10-15T00:36:38.699Z,99851.78
2022-10-15T00:39:08.633Z,99859.75
2022-10-15T00:41:40.288Z,99853.81
2022-10-15T00:44:42.142Z,99850.84
2022-10-15T00:47:16.030Z,99841.22
2022-10-15T00:49:50.476Z,99841.06
2022-10-15T00:52:24.107Z,99844.88
2022-10-15T00:55:01.243Z,99839.25
2022-10-15T00:57:32.105Z,99853.19
2022-10-15T01:00:06.705Z,99844.69
2022-10-15T01:02:35.418Z,99846.53
2022-10-15T01:05:06.131Z,99848.19
2022-10-15T01:07:34.742Z,99842.56
2022-10-15T01:10:04.949Z,99830.44
2022-10-15T01:13:00.374Z,99831.28
2022-10-15T01:15:34.819Z,99841.56
2022-10-15T01:18:09.420Z,99828.63
2022-10-15T01:21:02.868Z,99817.31
2022-10-15T01:24:00.731Z,99818.63
2022-10-15T01:27:19.895Z,99821.63
2022-10-15T01:30:09.533Z,99818.63
2022-10-15T01:32:47.960Z,99806.53
2022-10-15T01:35:26.051Z,99791.78
2022-10-15T01:38:01.454Z,99786.47
2022-10-15T01:40:36.041Z,99795.41
2022-10-15T01:43:07.480Z,99801.56
2022-10-15T01:45:42.113Z,99800.06
2022-10-15T01:48:14.170Z,99797.59
2022-10-15T01:50:47.182Z,99792.78
2022-10-15T01:53:19.155Z,99787.81
2022-10-15T01:55:49.263Z,99786.34
2022-10-15T01:58:19.396Z,99770.56
2022-10-15T02:00:49.944Z,99769.75
2022-10-15T02:03:20.412Z,99767.09
2022-10-15T02:05:54.542Z,99761.78
2022-10-15T02:08:30.194Z,99763.59
2022-10-15T02:11:04.627Z,99758.16
2022-10-15T02:13:43.843Z,99760.81
2022-10-15T02:16:15.715Z,99756.94
2022-10-15T02:18:53.200Z,99756.97
2022-10-15T02:21:27.786Z,99749.66
2022-10-15T02:24:01.556Z,99753.28
2022-10-15T02:26:32.205Z,99746.16
2022-10-15T02:29:03.814Z,99746.00
2022-10-15T02:31:37.272Z,99732.72
2022-10-15T02:34:10.945Z,99741.00
2022-10-15T02:36:42.612Z,99739.88
2022-10-15T02:39:14.802Z,99733.28
2022-10-15T02:41:44.835Z,99739.75
2022-10-15T02:44:13.191Z,99735.94
2022-10-15T02:46:41.755Z,99733.06
2022-10-15T02:49:11.677Z,99728.94
2022-10-15T02:51:40.235Z,99727.41
2022-10-15T02:54:09.803Z,99724.75
2022-10-15T02:56:39.964Z,99715.66
2022-10-15T02:59:12.626Z,99723.31
2022-10-15T03:01:41.099Z,99731.72
2022-10-15T03:04:11.763Z,99711.50
2022-10-15T03:06:40.333Z,99724.78
2022-10-15T03:09:08.815Z,99722.63
2022-10-15T03:11:37.518Z,99730.41
2022-10-15T03:14:06.080Z,99720.78
2022-10-15T03:16:34.678Z,99706.88
2022-10-15T03:19:03.273Z,99690.28
2022-10-15T03:21:33.331Z,99702.53
2022-10-15T03:24:01.879Z,99700.88
2022-10-15T03:26:30.355Z,99700.56
2022-10-15T03:28:59.063Z,99695.25
2022-10-15T03:31:27.749Z,99709.50
2022-10-15T03:33:56.324Z,99693.59
2022-10-15T03:36:24.858Z,99688.31
2022-10-15T03:38:54.844Z,99699.88
2022-10-15T03:41:23.422Z,99684.09
2022-10-15T03:43:51.924Z,99690.59
2022-10-15T03:46:20.388Z,99684.63
2022-10-15T03:48:50.952Z,99681.47
2022-10-15T03:51:23.467Z,99681.00
2022-10-15T03:53:55.694Z,99678.03
2022-10-15T03:56:24.163Z,99670.56
2022-10-15T03:58:52.748Z,99680.03
2022-10-15T04:01:21.416Z,99673.88
2022-10-15T04:03:53.630Z,99676.38
2022-10-15T04:06:22.524Z,99662.13
2022-10-15T04:11:22.250Z,99670.41
2022-10-15T04:13:51.464Z,99663.47
2022-10-15T04:16:20.034Z,99679.34
2022-10-15T04:18:48.636Z,99663.59
2022-10-15T04:21:17.165Z,99671.22
2022-10-15T04:23:45.638Z,99663.13
2022-10-15T04:26:14.193Z,99656.31
2022-10-15T04:28:44.561Z,99654.50
2022-10-15T04:31:13.143Z,99649.88
2022-10-15T04:33:41.821Z,99656.63
2022-10-15T04:36:14.468Z,99655.19
2022-10-15T04:38:43.309Z,99653.53
2022-10-15T04:41:13.547Z,99654.19
2022-10-15T04:43:43.673Z,99649.88
2022-10-15T04:46:12.331Z,99662.13
2022-10-15T04:48:43.189Z,99659.81
2022-10-15T04:51:14.604Z,99652.84
2022-10-15T04:53:43.084Z,99646.22
2022-10-15T04:56:15.705Z,99647.69
2022-10-15T04:58:47.529Z,99652.19
2022-10-15T05:01:18.584Z,99642.25
2022-10-15T05:03:48.619Z,99638.94
2022-10-15T05:06:19.038Z,99635.31
2022-10-15T05:08:48.684Z,99653.19
2022-10-15T05:11:19.086Z,99657.84
2022-10-15T05:13:49.409Z,99656.69
2022-10-15T05:16:19.351Z,99661.66
2022-10-15T05:18:49.972Z,99652.72
2022-10-15T05:21:19.603Z,99659.50
2022-10-15T05:23:50.317Z,99654.53
2022-10-15T05:26:21.280Z,99653.56
2022-10-15T05:28:52.273Z,99656.53
2022-10-15T05:31:23.013Z,99647.59
2022-10-15T05:33:53.056Z,99646.94
2022-10-15T05:36:24.049Z,99651.75
2022-10-15T05:38:54.855Z,99643.94
2022-10-15T05:41:24.473Z,99633.34
2022-10-15T05:43:56.515Z,99646.28
2022-10-15T05:46:26.032Z,99631.22
2022-10-15T05:48:56.164Z,99624.41
2022-10-15T05:51:25.942Z,99633.22
2022-10-15T05:53:55.278Z,99618.31
2022-10-15T05:56:24.257Z,99627.25
2022-10-15T05:58:54.307Z,99623.41
2022-10-15T06:01:23.466Z,99639.16
2022-10-15T06:03:52.147Z,99634.38
2022-10-15T06:06:22.165Z,99641.66
2022-10-15T06:08:51.838Z,99631.38
2022-10-15T06:11:21.313Z,99639.19
2022-10-15T06:13:49.795Z,99657.88
2022-10-15T06:16:23.592Z,99650.44
2022-10-15T06:18:53.908Z,99657.88
2022-10-15T06:21:22.584Z,99661.53
2022-10-15T06:23:51.031Z,99664.50
2022-10-15T06:26:19.723Z,99658.84
2022-10-15T06:28:48.463Z,99654.22
2022-10-15T06:31:18.511Z,99646.25
2022-10-15T06:33:47.028Z,99663.63
2022-10-15T06:36:15.726Z,99661.47
2022-10-15T06:38:45.098Z,99676.06
2022-10-15T06:41:14.917Z,99671.56
2022-10-15T06:43:43.491Z,99667.56
2022-10-15T06:46:12.122Z,99667.06
2022-10-15T06:48:42.039Z,99659.09
2022-10-15T06:51:10.907Z,99670.16
2022-10-15T06:53:42.413Z,99678.97
2022-10-15T06:56:11.121Z,99682.75
2022-10-15T06:58:39.693Z,99686.91
2022-10-15T07:01:10.346Z,99688.38
2022-10-15T07:03:39.372Z,99681.06
2022-10-15T07:06:11.164Z,99690.53
2022-10-15T07:08:39.588Z,99677.09
2022-10-15T07:11:09.595Z,99687.19
2022-10-15T07:13:38.475Z,99686.50
2022-10-15T07:16:07.676Z,99690.47
2022-10-15T07:18:36.403Z,99692.41
2022-10-15T07:21:06.844Z,99698.88
2022-10-15T07:23:37.450Z,99697.53
2022-10-15T07:26:06.136Z,99695.69
2022-10-15T07:28:34.695Z,99710.91
2022-10-15T07:31:04.702Z,99713.22
2022-10-15T07:33:34.537Z,99719.38
2022-10-15T07:36:05.047Z,99716.03
2022-10-15T07:38:33.688Z,99723.13
2022-10-15T07:41:04.662Z,99719.09
2022-10-15T07:43:33.172Z,99714.75
2022-10-15T07:46:01.672Z,99723.84
2022-10-15T07:48:30.485Z,99717.00
2022-10-15T07:51:00.472Z,99719.59
2022-10-15T07:53:29.526Z,99720.53
2022-10-15T07:56:01.363Z,99714.19
2022-10-15T07:58:31.494Z,99724.41
2022-10-15T08:01:01.847Z,99720.00
2022-10-15T08:03:30.855Z,99719.94
2022-10-15T08:06:01.827Z,99717.56
2022-10-15T08:08:30.373Z,99719.16
2022-10-15T08:10:59.184Z,99716.56
2022-10-15T08:13:27.675Z,99716.09
2022-10-15T08:16:00.352Z,99709.03
2022-10-15T08:18:29.168Z,99709.31
2022-10-15T08:21:00.908Z,99695.44
2022-10-15T08:23:29.928Z,99697.00
2022-10-15T08:25:59.638Z,99709.69
2022-10-15T08:28:28.409Z,99707.56
2022-10-15T08:31:02.788Z,99708.84
2022-10-15T08:33:34.659Z,99715.94
2022-10-15T08:36:03.671Z,99720.31
2022-10-15T08:38:32.683Z,99725.91
2022-10-15T08:41:03.122Z,99724.53
2022-10-15T08:43:37.255Z,99726.81
2022-10-15T08:46:11.247Z,99722.59
2022-10-15T08:48:43.627Z,99728.84
2022-10-15T08:51:15.680Z,99737.28
2022-10-15T08:53:48.716Z,99734.44
2022-10-15T08:56:22.273Z,99741.03
2022-10-15T08:59:01.003Z,99728.53
2022-10-15T09:01:37.061Z,99741.31
2022-10-15T09:04:16.369Z,99735.41
2022-10-15T09:06:45.280Z,99723.81
2022-10-15T09:09:23.882Z,99735.41
2022-10-15T09:12:01.103Z,99731.44
2022-10-15T09:14:32.880Z,99739.06
2022-10-15T09:17:07.919Z,99739.06
2022-10-15T09:19:38.003Z,99736.88
2022-10-15T09:22:07.037Z,99736.53
2022-10-15T09:24:35.944Z,99740.03
2022-10-15T09:27:10.624Z,99734.50
2022-10-15T09:29:45.761Z,99746.06
2022-10-15T09:32:23.110Z,99752.25
2022-10-15T09:35:00.537Z,99745.25
2022-10-15T09:37:35.060Z,99748.34
2022-10-15T09:40:31.548Z,99757.47
2022-10-15T09:43:01.778Z,99757.72
2022-10-15T09:45:30.425Z,99748.69
2022-10-15T09:48:03.241Z,99737.28
2022-10-15T09:50:41.206Z,99739.19
2022-10-15T09:53:23.318Z,99742.47
2022-10-15T09:56:02.023Z,99754.81
2022-10-15T09:58:35.451Z,99751.13
2022-10-15T10:01:06.578Z,99761.03
2022-10-15T10:03:38.360Z,99761.47
2022-10-15T10:06:09.271Z,99755.56
2022-10-15T10:08:41.113Z,99764.47
2022-10-15T10:11:13.077Z,99768.19
2022-10-15T10:13:47.264Z,99763.31
2022-10-15T10:16:19.272Z,99771.56
2022-10-15T10:19:05.411Z,99765.84
2022-10-15T10:21:35.945Z,99776.16
2022-10-15T10:24:39.498Z,99763.41
2022-10-15T10:27:20.190Z,99764.69
2022-10-15T10:29:54.317Z,99762.66
2022-10-15T10:32:25.279Z,99751.19
2022-10-15T10:34:56.181Z,99765.56
2022-10-15T10:37:25.014Z,99758.19
2022-10-15T10:39:55.183Z,99761.09
2022-10-15T10:42:41.452Z,99760.19
2022-10-15T10:45:20.433Z,99755.25
2022-10-15T10:47:49.280Z,99760.44
2022-10-15T10:50:40.854Z,99758.84
2022-10-15T10:53:24.665Z,99760.13
2022-10-15T10:55:56.079Z,99771.66
2022-10-15T10:58:27.133Z,99760.19
2022-10-15T11:00:56.950Z,99763.50
2022-10-15T11:03:33.232Z,99762.09
2022-10-15T11:06:13.799Z,99751.63
2022-10-15T11:08:49.340Z,99757.84
2022-10-15T11:11:25.917Z,99756.41
2022-10-15T11:14:05.989Z,99746.38
2022-10-15T11:16:44.315Z,99752.97
2022-10-15T11:19:50.786Z,99747.03
2022-10-15T11:22:51.293Z,99750.94
2022-10-15T11:25:28.968Z,99740.69
2022-10-15T11:28:20.402Z,99741.72
2022-10-15T11:30:56.352Z,99729.59
2022-10-15T11:33:55.870Z,99737.22
2022-10-15T11:36:45.920Z,99730.44
2022-10-15T11:39:29.182Z,99727.13
2022-10-15T11:42:07.207Z,99733.28
2022-10-15T11:44:54.675Z,99726.50
2022-10-15T11:47:35.081Z,99720.97
2022-10-15T11:50:18.767Z,99718.16
2022-10-15T11:53:09.363Z,99723.31
2022-10-15T11:55:43.734Z,99716.31
2022-10-15T11:58:30.693Z,99721.47
2022-10-15T12:01:06.948Z,99712.00
2022-10-15T12:03:42.373Z,99724.38
2022-10-15T12:06:15.056Z,99710.38
2022-10-15T12:08:45.588Z,99710.78
2022-10-15T12:11:28.973Z,99714.47
2022-10-15T12:14:04.031Z,99717.78
2022-10-15T12:16:41.381Z,99715.31
2022-10-15T12:19:16.779Z,99717.78
2022-10-15T12:22:01.977Z,99720.28
2022-10-15T12:24:53.832Z,99728.91
2022-10-15T12:27:37.527Z,99726.03
2022-10-15T12:30:34.543Z,99728.31
2022-10-15T12:33:05.767Z,99722.31
2022-10-15T12:35:39.049Z,99724.41
2022-10-15T12:38:23.480Z,99715.75
2022-10-15T12:41:03.276Z,99717.38
2022-10-15T12:43:35.944Z,99710.19
2022-10-15T12:46:06.398Z,99712.47
2022-10-15T12:48:37.544Z,99717.63
2022-10-15T12:51:35.284Z,99710.81
2022-10-15T12:54:03.794Z,99718.63
2022-10-15T12:56:41.908Z,99720.28
2022-10-15T12:59:54.356Z,99712.25
2022-10-15T13:02:39.627Z,99715.75
2022-10-15T13:05:10.433Z,99712.84
2022-10-15T13:07:42.024Z,99718.84
2022-10-15T13:10:21.861Z,99721.53
2022-10-15T13:12:55.273Z,99717.81
2022-10-15T13:15:28.378Z,99725.22
2022-10-15T13:17:59.412Z,99730.81
2022-10-15T13:20:36.103Z,99729.56
2022-10-15T13:23:29.037Z,99725.22
2022-10-15T13:26:25.034Z,99719.47
2022-10-15T13:28:55.351Z,99720.06
2022-10-15T13:31:30.335Z,99722.75
2022-10-15T13:34:03.115Z,99718.22
2022-10-15T13:36:33.720Z,99718.22
2022-10-15T13:39:05.480Z,99723.78
2022-10-15T13:41:37.656Z,99728.75
2022-10-15T13:44:06.720Z,99733.88
2022-10-15T13:46:39.912Z,99721.09
2022-10-15T13:49:14.190Z,99729.56
2022-10-15T13:51:44.971Z,99720.28
2022-10-15T13:54:19.085Z,99727.47
2022-10-15T13:56:53.691Z,99726.84
2022-10-15T13:59:23.639Z,99734.22
2022-10-15T14:02:01.009Z,99737.94
2022-10-15T14:04:31.781Z,99745.31
2022-10-15T14:07:03.030Z,99738.53
2022-10-15T14:09:34.221Z,99752.75
2022-10-15T14:12:03.810Z,99746.19
2022-10-15T14:14:35.452Z,99753.63
2022-10-15T14:17:08.073Z,99754.44
2022-10-15T14:19:38.680Z,99756.50
2022-10-15T14:22:08.083Z,99758.19
2022-10-15T14:24:38.824Z,99744.16
2022-10-15T14:27:09.153Z,99758.78
2022-10-15T14:29:41.226Z,99752.41
2022-10-15T14:32:26.894Z,99753.19
2022-10-15T14:34:56.711Z,99756.06
2022-10-15T14:37:43.312Z,99755.84
2022-10-15T14:40:18.694Z,99750.25
2022-10-15T14:42:48.607Z,99758.91
2022-10-15T14:45:25.542Z,99753.75
2022-10-15T14:47:58.129Z,99745.25
2022-10-15T14:50:28.557Z,99751.63
2022-10-15T14:52:58.063Z,99749.13
2022-10-15T14:55:33.601Z,99746.84
2022-10-15T14:58:08.648Z,99755.28
2022-10-15T15:00:42.048Z,99745.34
2022-10-15T15:03:17.207Z,99754.53
2022-10-15T15:05:47.821Z,99766.88
2022-10-15T15:08:18.052Z,99750.44
2022-10-15T15:13:21.574Z,99766.97
2022-10-15T15:15:52.338Z,99763.50
2022-10-15T15:18:22.651Z,99758.72
2022-10-15T15:20:53.187Z,99769.03
2022-10-15T15:23:24.034Z,99777.03
2022-10-15T15:25:53.533Z,99789.75
2022-10-15T15:28:24.225Z,99780.50
2022-10-15T15:30:57.549Z,99774.13
2022-10-15T15:33:28.497Z,99772.06
2022-10-15T15:36:03.137Z,99780.25
2022-10-15T15:38:32.112Z,99786.78
2022-10-15T15:41:05.318Z,99786.28
2022-10-15T15:43:33.910Z,99799.22
2022-10-15T15:46:02.390Z,99803.56
2022-10-15T15:48:32.520Z,99794.53
2022-10-15T15:51:04.490Z,99796.84
2022-10-15T15:53:33.076Z,99797.47
2022-10-15T15:56:01.762Z,99799.13
2022-10-15T15:58:30.591Z,99805.50
2022-10-15T16:00:59.362Z,99801.38
2022-10-15T16:03:27.843Z,99811.69
2022-10-15T16:05:57.886Z,99808.56
2022-10-15T16:08:26.373Z,99804.91
2022-10-15T16:10:55.228Z,99808.31
2022-10-15T16:13:24.036Z,99800.44
2022-10-15T16:15:52.621Z,99828.00
2022-10-15T16:18:21.315Z,99825.41
2022-10-15T16:20:50.502Z,99815.75
2022-10-15T16:23:20.626Z,99823.19
2022-10-15T16:25:49.111Z,99827.50
2022-10-15T16:28:18.049Z,99825.88
2022-10-15T16:30:47.114Z,99830.25
2022-10-15T16:33:15.701Z,99822.81
2022-10-15T16:35:45.060Z,99827.97
2022-10-15T16:38:13.589Z,99835.69
2022-10-15T16:40:47.134Z,99838.19
2022-10-15T16:43:15.880Z,99841.69
2022-10-15T16:45:49.180Z,99849.34
2022-10-15T16:48:17.769Z,99851.00
2022-10-15T16:50:46.751Z,99852.19
2022-10-15T16:53:15.357Z,99847.66
2022-10-15T16:55:45.451Z,99846.00
2022-10-15T16:58:13.935Z,99852.19
2022-10-15T17:00:42.460Z,99844.97
2022-10-15T17:03:12.613Z,99847.66
2022-10-15T17:05:41.166Z,99849.25
2022-10-15T17:08:13.031Z,99853.84
2022-10-15T17:10:45.610Z,99862.88
2022-10-15T17:13:14.067Z,99862.03
2022-10-15T17:15:42.543Z,99875.38
2022-10-15T17:18:10.989Z,99874.56
2022-10-15T17:20:45.387Z,99882.97
2022-10-15T17:23:13.907Z,99876.72
2022-10-15T17:25:42.523Z,99878.75
2022-10-15T17:28:14.773Z,99876.25
2022-10-15T17:30:43.577Z,99885.38
2022-10-15T17:33:12.115Z,99878.66
2022-10-15T17:35:40.684Z,99884.22
2022-10-15T17:38:09.321Z,99887.69
2022-10-15T17:40:37.944Z,99885.66
2022-10-15T17:43:06.488Z,99893.63
2022-10-15T17:45:36.467Z,99887.84
2022-10-15T17:48:04.952Z,99890.94
2022-10-15T17:50:33.450Z,99895.69
2022-10-15T17:53:03.517Z,99879.16
2022-10-15T17:55:32.293Z,99898.31
2022-10-15T17:58:00.727Z,99897.94
2022-10-15T18:00:29.515Z,99889.28
2022-10-15T18:02:59.621Z,99903.28
2022-10-15T18:05:28.050Z,99901.47
2022-10-15T18:07:56.474Z,99905.41
2022-10-15T18:10:24.995Z,99895.66
2022-10-15T18:12:53.557Z,99909.75
2022-10-15T18:15:22.871Z,99914.72
2022-10-15T18:17:51.288Z,99922.44
2022-10-15T18:20:21.205Z,99915.25
2022-10-15T18:22:49.613Z,99910.94
2022-10-15T18:25:18.228Z,99914.63
2022-10-15T18:27:46.721Z,99911.78
2022-10-15T18:30:15.707Z,99910.13
2022-10-15T18:32:44.208Z,99905.31
2022-10-15T18:35:12.728Z,99911.94
2022-10-15T18:37:42.877Z,99909.38
2022-10-15T18:40:12.634Z,99920.03
2022-10-15T18:42:41.108Z,99915.91
2022-10-15T18:45:10.142Z,99917.91
2022-10-15T18:47:38.593Z,99921.16
2022-10-15T18:50:08.880Z,99934.88
2022-10-15T18:52:40.725Z,99934.69
2022-10-15T18:55:13.054Z,99930.19
2022-10-15T18:57:41.485Z,99924.97
2022-10-15T19:00:11.084Z,99924.59
2022-10-15T19:02:39.888Z,99930.72
2022-10-15T19:05:09.052Z,99923.94
2022-10-15T19:07:37.533Z,99926.34
2022-10-15T19:10:06.667Z,99938.13
2022-10-15T19:12:36.561Z,99940.97
2022-10-15T19:15:05.332Z,99936.75
2022-10-15T19:17:33.777Z,99948.16
2022-10-15T19:20:02.223Z,99950.47
2022-10-15T19:22:31.305Z,99951.63
2022-10-15T19:24:59.805Z,99933.91
2022-10-15T19:27:28.335Z,99938.94
2022-10-15T19:29:58.237Z,99948.03
2022-10-15T19:32:26.732Z,99948.03
2022-10-15T19:34:55.214Z,99946.97
2022-10-15T19:37:24.333Z,99955.84
2022-10-15T19:39:53.222Z,99959.75
2022-10-15T19:42:21.634Z,99961.25
2022-10-15T19:44:50.403Z,99959.25
2022-10-15T19:47:21.338Z,99954.84
2022-10-15T19:49:51.366Z,99955.03
2022-10-15T19:52:20.106Z,99960.38
2022-10-15T19:54:48.580Z,99959.53
2022-10-15T19:57:17.312Z,99961.56
2022-10-15T19:59:45.729Z,99968.13
2022-10-15T20:02:14.202Z,99968.13
2022-10-15T20:04:44.129Z,99972.44
2022-10-15T20:07:12.647Z,99982.47
2022-10-15T20:09:41.299Z,99972.81
2022-10-15T20:12:10.809Z,99973.91
2022-10-15T20:14:39.292Z,99974.09
2022-10-15T20:17:07.717Z,99982.75
2022-10-15T20:19:36.255Z,99987.81
2022-10-15T20:22:06.176Z,99992.66
2022-10-15T20:24:34.617Z,99987.91
2022-10-15T20:27:03.144Z,99999.22
2022-10-15T20:29:31.629Z,99998.28
2022-10-15T20:32:10.601Z,99997.00
2022-10-15T20:34:45.336Z,100007.38
2022-10-15T20:37:17.349Z,100007.56
2022-10-15T20:39:45.910Z,100012.72
2022-10-15T20:42:14.641Z,100009.41
2022-10-15T20:44:43.237Z,100004.44
2022-10-15T20:47:16.329Z,100013.81
2022-10-15T20:49:48.149Z,100003.50
2022-10-15T20:52:18.103Z,100018.06
2022-10-15T20:54:46.747Z,100023.91
2022-10-15T20:57:16.361Z,100034.13
2022-10-15T20:59:44.908Z,100036.13
2022-10-15T21:02:13.384Z,100027.00
2022-10-15T21:04:42.236Z,100037.00
2022-10-15T21:07:11.029Z,100039.69
2022-10-15T21:09:41.021Z,100034.00
2022-10-15T21:12:10.718Z,100037.50
2022-10-15T21:14:39.484Z,100027.00
2022-10-15T21:17:08.186Z,100034.34
2022-10-15T21:19:36.783Z,100028.38
2022-10-15T21:22:05.824Z,100024.03
2022-10-15T21:24:35.529Z,100034.25
2022-10-15T21:27:05.935Z,100036.44
2022-10-15T21:29:34.408Z,100029.84
2022-10-15T21:32:03.003Z,100035.19
2022-10-15T21:34:31.925Z,100038.03
2022-10-15T21:37:00.426Z,100047.50
2022-10-15T21:39:29.051Z,100037.19
2022-10-15T21:41:57.675Z,100047.28
2022-10-15T21:44:27.760Z,100049.03
2022-10-15T21:46:56.323Z,100046.09
2022-10-15T21:49:25.258Z,100047.44
2022-10-15T21:51:53.679Z,100054.13
2022-10-15T21:54:22.232Z,100054.53
2022-10-15T21:56:50.972Z,100054.25
2022-10-15T21:59:19.512Z,100055.44
2022-10-15T22:01:49.733Z,100067.25
2022-10-15T22:04:18.199Z,100059.63
2022-10-15T22:06:46.702Z,100067.00
2022-10-15T22:09:15.162Z,100074.34
2022-10-15T22:11:44.657Z,100073.50
2022-10-15T22:14:14.753Z,100068.34
2022-10-15T22:16:43.837Z,100070.38
2022-10-15T22:19:16.447Z,100074.03
2022-10-15T22:21:45.215Z,100078.19
2022-10-15T22:24:16.005Z,100073.06
2022-10-15T22:26:46.953Z,100083.38
2022-10-15T22:29:20.498Z,100084.38
2022-10-15T22:31:49.825Z,100084.03
2022-10-15T22:34:20.404Z,100084.84
2022-10-15T22:36:49.141Z,100080.34
2022-10-15T22:39:19.071Z,100083.69
2022-10-15T22:41:48.949Z,100087.34
2022-10-15T22:44:19.806Z,100094.78
2022-10-15T22:46:49.766Z,100089.31
2022-10-15T22:49:21.778Z,100090.66
2022-10-15T22:51:51.521Z,100090.66
2022-10-15T22:54:22.583Z,100102.78
2022-10-15T22:56:52.130Z,100099.97
2022-10-15T22:59:21.155Z,100104.28
2022-10-15T23:01:49.703Z,100104.28
2022-10-15T23:04:20.193Z,100110.59
2022-10-15T23:06:48.806Z,100109.88
2022-10-15T23:09:18.228Z,100108.88
2022-10-15T23:11:47.445Z,100111.19
2022-10-15T23:14:17.702Z,100099.22
2022-10-15T23:16:47.791Z,100100.88
2022-10-15T23:19:18.396Z,100093.25
2022-10-15T23:21:50.419Z,100094.25
2022-10-15T23:24:20.976Z,100093.28
2022-10-15T23:26:49.792Z,100089.63
2022-10-15T23:29:20.241Z,100080.41
2022-10-15T23:31:49.575Z,100092.75
2022-10-15T23:34:19.510Z,100089.47
2022-10-15T23:36:50.176Z,100087.22
2022-10-15T23:39:21.608Z,100086.56
2022-10-15T23:41:50.350Z,100095.25
2022-10-15T23:44:20.881Z,100101.59
2022-10-15T23:46:49.435Z,100108.91
2022-10-15T23:49:18.457Z,100109.13
2022-10-15T23:51:50.225Z,100110.97
2022-10-15T23:54:19.907Z,100115.63
2022-10-15T23:56:49.058Z,100112.66
2022-10-15T23:59:18.546Z,100106.88
